Time;durP1;ratioP1;P1;durP2;ratioP2;P2;SDS_P1;SDS_P2;PMS_P1;PMS_P2;Temp;Humidity;BMP_temperature;BMP_pressure;BME280_temperature;BME280_humidity;BME280_pressure;Samples;Min_cycle;Max_cycle;Signal;HPM_P1;HPM_P2
2022/09/23 00:00:53;;;;;;;;;;;;;;;;;;5080731;28;20127;-76
2022/09/23 00:03:20;;;;;;;21.02;12.10;;;;;;;;;;5067746;28;20000;-76
2022/09/23 00:05:57;;;;;;;18.60;11.98;;;;;;;;;;5067428;28;20048;-76
2022/09/23 00:08:23;;;;;;;20.15;12.63;;;;;;;;;;5068646;28;20185;-74
2022/09/23 00:10:49;;;;;;;19.33;12.68;;;;;;;;;;5083052;28;20047;-76
2022/09/23 00:13:15;;;;;;;21.23;13.57;;;;;;;;;;5082022;28;20069;-73
2022/09/23 00:15:41;;;;;;;18.75;12.93;;;;;;;;;;5067538;28;20376;-77
2022/09/23 00:18:08;;;;;;;20.33;13.57;;;;;;;;;;5068579;28;20071;-76
2022/09/23 00:20:35;;;;;;;21.35;13.48;;;;;;;;;;5071981;28;20076;-77
2022/09/23 00:23:01;;;;;;;22.13;12.40;;;;;;;;;;5076664;28;20105;-77
2022/09/23 00:25:28;;;;;;;19.75;12.48;;;;;;;;;;5067655;28;20120;-76
2022/09/23 00:27:54;;;;;;;17.67;12.65;;;;;;;;;;5068178;28;20053;-76
2022/09/23 00:30:22;;;;;;;17.15;11.95;;;;;;;;;;5067337;28;20126;-76
2022/09/23 00:32:48;;;;;;;20.98;13.10;;;;;;;;;;5056966;28;20063;-77
2022/09/23 00:35:14;;;;;;;20.25;14.45;;;;;;;;;;5070654;28;20060;-77
2022/09/23 00:37:41;;;;;;;20.30;13.63;;;;;;;;;;5053989;28;20105;-77
2022/09/23 00:40:08;;;;;;;21.00;13.85;;;;;;;;;;5082287;28;20518;-77
2022/09/23 00:42:34;;;;;;;;;;;;;;;;;;5088607;28;20066;-77
2022/09/23 00:45:01;;;;;;;21.20;14.50;;;;;;;;;;5082893;28;19920;-77
2022/09/23 00:47:32;;;;;;;22.05;14.70;;;;;;;;;;5082602;28;20056;-76
2022/09/23 00:50:10;;;;;;;21.25;14.07;;;;;;;;;;5073322;28;20041;-77
2022/09/23 00:52:37;;;;;;;20.25;13.80;;;;;;;;;;5069105;28;20098;-77
2022/09/23 00:55:12;;;;;;;23.48;13.77;;;;;;;;;;5067671;28;20079;-76
2022/09/23 00:57:39;;;;;;;20.98;13.40;;;;;;;;;;5086880;28;20095;-77
2022/09/23 01:00:07;;;;;;;18.20;13.02;;;;;;;;;;5079747;28;20103;-77
2022/09/23 01:02:33;;;;;;;22.10;12.80;;;;;;;;;;5068789;28;20456;-76
2022/09/23 01:04:59;;;;;;;;;;;;;;;;;;5050173;28;20368;-76
2022/09/23 01:07:25;;;;;;;18.45;13.05;;;;;;;;;;5066994;28;19921;-74
2022/09/23 01:09:52;;;;;;;16.95;12.90;;;;;;;;;;5083974;28;20151;-77
2022/09/23 01:12:18;;;;;;;19.25;12.73;;;;;;;;;;5069828;28;20071;-77
2022/09/23 01:14:59;;;;;;;19.45;13.88;;;;;;;;;;5073918;28;20074;-76
2022/09/23 01:17:34;;;;;;;19.40;12.93;;;;;;;;;;5089279;28;20055;-76
2022/09/23 01:20:10;;;;;;;18.10;13.38;;;;;;;;;;5088817;28;20125;-77
2022/09/23 01:22:52;;;;;;;20.88;13.57;;;;;;;;;;5065816;28;20055;-76
2022/09/23 01:25:39;;;;;;;19.13;13.20;;;;;;;;;;5071316;28;20076;-77
2022/09/23 01:28:24;;;;;;;21.25;12.50;;;;;;;;;;5076746;28;20056;-77
2022/09/23 01:31:08;;;;;;;19.40;12.32;;;;;;;;;;5088864;28;20070;-76
2022/09/23 01:33:39;;;;;;;21.02;13.02;;;;;;;;;;5069695;28;20182;-76
2022/09/23 01:36:08;;;;;;;20.13;13.10;;;;;;;;;;5071232;28;20178;-76
2022/09/23 01:38:40;;;;;;;18.00;12.43;;;;;;;;;;5070670;28;20427;-76
2022/09/23 01:41:15;;;;;;;20.85;13.07;;;;;;;;;;5070850;28;20102;-77
2022/09/23 01:43:44;;;;;;;17.90;12.77;;;;;;;;;;5089113;28;20476;-74
2022/09/23 01:46:14;;;;;;;19.60;12.65;;;;;;;;;;5071209;28;20048;-77
2022/09/23 01:48:46;;;;;;;20.67;12.88;;;;;;;;;;5065042;28;20127;-76
2022/09/23 01:51:19;;;;;;;18.00;12.68;;;;;;;;;;5081296;28;20053;-77
2022/09/23 01:53:59;;;;;;;18.80;12.55;;;;;;;;;;5070623;28;20055;-77
2022/09/23 01:56:39;;;;;;;15.93;11.98;;;;;;;;;;5081570;28;20398;-77
2022/09/23 01:59:13;;;;;;;18.23;12.25;;;;;;;;;;5089030;28;20357;-77
2022/09/23 02:01:49;;;;;;;19.55;12.07;;;;;;;;;;5075755;28;20045;-73
2022/09/23 02:04:38;;;;;;;19.00;12.50;;;;;;;;;;5081113;28;20059;-77
2022/09/23 02:07:10;;;;;;;20.33;11.95;;;;;;;;;;5084988;28;20408;-77
2022/09/23 02:09:39;;;;;;;19.92;12.73;;;;;;;;;;5072652;28;20050;-77
2022/09/23 02:12:11;;;;;;;18.23;11.77;;;;;;;;;;5083100;28;20388;-77
2022/09/23 02:14:46;;;;;;;20.70;12.90;;;;;;;;;;5071655;28;20080;-77
2022/09/23 02:17:16;;;;;;;17.10;11.50;;;;;;;;;;5071068;28;20139;-75
2022/09/23 02:19:46;;;;;;;17.95;11.77;;;;;;;;;;5090424;28;20449;-77
2022/09/23 02:22:34;;;;;;;16.92;11.13;;;;;;;;;;5079320;28;20033;-77
2022/09/23 02:25:02;;;;;;;16.05;11.35;;;;;;;;;;5086182;28;20561;-76
2022/09/23 02:27:31;;;;;;;17.70;12.60;;;;;;;;;;5080431;28;20148;-77
2022/09/23 02:30:01;;;;;;;18.48;11.75;;;;;;;;;;5069110;28;20538;-77
2022/09/23 02:32:33;;;;;;;16.70;12.27;;;;;;;;;;5073474;28;20112;-78
2022/09/23 02:35:13;;;;;;;19.27;12.48;;;;;;;;;;5072594;28;20040;-75
2022/09/23 02:37:44;;;;;;;18.10;13.13;;;;;;;;;;5086111;28;20070;-76
2022/09/23 02:40:22;;;;;;;17.92;11.93;;;;;;;;;;5090377;28;20492;-77
2022/09/23 02:42:54;;;;;;;16.98;11.23;;;;;;;;;;5053483;28;20052;-76
2022/09/23 02:45:20;;;;;;;18.85;12.07;;;;;;;;;;5073388;28;20078;-77
2022/09/23 02:47:48;;;;;;;17.42;12.45;;;;;;;;;;5074839;28;20138;-76
2022/09/23 02:50:14;;;;;;;17.25;12.50;;;;;;;;;;5089245;28;20126;-75
2022/09/23 02:52:41;;;;;;;16.23;11.95;;;;;;;;;;5068518;28;20120;-76
2022/09/23 02:55:09;;;;;;;21.23;12.65;;;;;;;;;;5070052;28;20052;-76
2022/09/23 02:57:35;;;;;;;17.85;12.23;;;;;;;;;;5069767;28;20048;-72
2022/09/23 03:00:02;;;;;;;18.83;12.68;;;;;;;;;;5069170;28;20048;-77
2022/09/23 03:02:49;;;;;;;16.98;11.73;;;;;;;;;;5069485;28;20040;-77
2022/09/23 03:05:16;;;;;;;17.95;13.10;;;;;;;;;;5072416;28;20059;-75
2022/09/23 03:08:01;;;;;;;17.02;12.48;;;;;;;;;;5070741;28;20066;-77
2022/09/23 03:10:35;;;;;;;19.08;12.85;;;;;;;;;;5074085;28;20189;-76
2022/09/23 03:13:11;;;;;;;18.30;12.73;;;;;;;;;;5089622;28;20044;-77
2022/09/23 03:15:37;;;;;;;17.58;12.43;;;;;;;;;;5072809;28;20119;-73
2022/09/23 03:18:11;;;;;;;18.30;13.00;;;;;;;;;;5069138;28;20131;-77
2022/09/23 03:20:39;;;;;;;18.30;12.95;;;;;;;;;;5069117;28;20060;-76
2022/09/23 03:23:08;;;;;;;18.50;13.27;;;;;;;;;;5080674;28;20055;-76
2022/09/23 03:25:36;;;;;;;20.63;13.30;;;;;;;;;;5074737;28;20119;-79
2022/09/23 03:28:03;;;;;;;18.42;13.65;;;;;;;;;;5081956;28;20066;-78
2022/09/23 03:30:34;;;;;;;19.35;13.55;;;;;;;;;;5088932;28;20423;-77
2022/09/23 03:33:01;;;;;;;20.45;13.40;;;;;;;;;;5089630;28;20042;-77
2022/09/23 03:35:29;;;;;;;18.38;12.55;;;;;;;;;;5080071;28;20036;-77
2022/09/23 03:37:56;;;;;;;18.63;13.52;;;;;;;;;;5077578;28;20066;-77
2022/09/23 03:40:23;;;;;;;19.00;13.10;;;;;;;;;;5068436;28;20124;-78
2022/09/23 03:42:49;;;;;;;18.58;12.65;;;;;;;;;;5077918;28;20349;-77
2022/09/23 03:45:17;;;;;;;17.67;13.65;;;;;;;;;;5083256;28;20048;-77
2022/09/23 03:47:44;;;;;;;18.08;12.70;;;;;;;;;;5079368;28;20040;-76
2022/09/23 03:50:16;;;;;;;18.55;12.95;;;;;;;;;;5086789;28;20124;-77
2022/09/23 03:52:42;;;;;;;18.35;14.05;;;;;;;;;;5071332;28;20073;-72
2022/09/23 03:55:11;;;;;;;19.95;13.63;;;;;;;;;;5067444;28;20055;-76
2022/09/23 03:57:37;;;;;;;22.83;13.77;;;;;;;;;;5065607;28;20126;-77
2022/09/23 04:00:05;;;;;;;17.25;13.48;;;;;;;;;;5068907;28;20036;-77
2022/09/23 04:02:31;;;;;;;18.65;13.45;;;;;;;;;;5068064;28;20384;-77
2022/09/23 04:04:57;;;;;;;17.85;12.60;;;;;;;;;;5088541;28;20163;-78
2022/09/23 04:07:24;;;;;;;20.83;14.35;;;;;;;;;;5071492;28;20123;-78
2022/09/23 04:09:50;;;;;;;18.45;12.77;;;;;;;;;;5067642;28;20189;-77
2022/09/23 04:12:16;;;;;;;18.25;13.32;;;;;;;;;;5068191;28;20116;-78
2022/09/23 04:14:43;;;;;;;19.17;13.20;;;;;;;;;;5069299;28;20040;-77
2022/09/23 04:17:10;;;;;;;17.92;13.68;;;;;;;;;;5076547;28;20044;-77
2022/09/23 04:19:36;;;;;;;20.15;13.95;;;;;;;;;;5067611;28;20492;-76
2022/09/23 04:22:02;;;;;;;17.45;13.90;;;;;;;;;;5068176;28;20049;-77
2022/09/23 04:24:28;;;;;;;22.33;13.93;;;;;;;;;;5078830;28;20147;-76
2022/09/23 04:26:55;;;;;;;19.13;14.10;;;;;;;;;;5075665;28;20052;-77
2022/09/23 04:29:21;;;;;;;19.65;13.95;;;;;;;;;;5068769;28;20108;-75
2022/09/23 04:31:47;;;;;;;19.15;13.60;;;;;;;;;;5068397;28;20402;-72
2022/09/23 04:34:17;;;;;;;18.58;13.25;;;;;;;;;;5068872;28;20440;-76
2022/09/23 04:36:44;;;;;;;19.48;14.93;;;;;;;;;;5068320;28;20170;-76
2022/09/23 04:39:10;;;;;;;20.38;14.65;;;;;;;;;;5067886;28;20491;-76
2022/09/23 04:41:36;;;;;;;19.63;15.60;;;;;;;;;;5072709;28;20089;-73
2022/09/23 04:44:03;;;;;;;21.02;15.45;;;;;;;;;;5067069;28;20405;-76
2022/09/23 04:46:30;;;;;;;21.63;16.20;;;;;;;;;;5069542;28;20468;-76
2022/09/23 04:48:56;;;;;;;20.40;15.70;;;;;;;;;;5071963;28;20356;-76
2022/09/23 04:51:22;;;;;;;;;;;;;;;;;;5085839;28;20044;-76
2022/09/23 04:53:49;;;;;;;21.25;15.23;;;;;;;;;;5091717;28;20417;-74
2022/09/23 04:56:17;;;;;;;22.05;16.67;;;;;;;;;;5064679;28;20051;-76
2022/09/23 04:58:44;;;;;;;20.20;16.08;;;;;;;;;;5072529;28;20040;-77
2022/09/23 05:01:13;;;;;;;22.08;17.10;;;;;;;;;;5087241;28;20059;-76
2022/09/23 05:03:40;;;;;;;22.45;16.65;;;;;;;;;;5092449;28;20055;-76
2022/09/23 05:06:06;;;;;;;22.05;15.85;;;;;;;;;;5075070;28;20044;-77
2022/09/23 05:08:33;;;;;;;22.50;17.58;;;;;;;;;;5071156;28;20128;-77
2022/09/23 05:11:01;;;;;;;22.85;17.00;;;;;;;;;;5082913;28;20048;-76
2022/09/23 05:13:27;;;;;;;22.98;16.65;;;;;;;;;;5071121;28;20048;-76
2022/09/23 05:16:00;;;;;;;22.88;17.20;;;;;;;;;;5081471;28;20399;-76
2022/09/23 05:18:27;;;;;;;25.02;18.33;;;;;;;;;;5077635;28;20119;-78
2022/09/23 05:20:56;;;;;;;23.75;17.40;;;;;;;;;;5077105;28;20041;-72
2022/09/23 05:23:22;;;;;;;25.38;18.85;;;;;;;;;;5073974;28;20145;-76
2022/09/23 05:25:49;;;;;;;24.73;18.95;;;;;;;;;;5079294;28;20040;-77
2022/09/23 05:28:18;;;;;;;;;;;;;;;;;;5077897;28;20045;-76
2022/09/23 05:30:45;;;;;;;22.80;17.83;;;;;;;;;;5061541;28;19920;-77
2022/09/23 05:33:13;;;;;;;23.13;18.10;;;;;;;;;;5075672;28;20159;-77
2022/09/23 05:35:39;;;;;;;22.65;18.13;;;;;;;;;;5057998;28;20048;-76
2022/09/23 05:38:05;;;;;;;23.95;18.55;;;;;;;;;;5084991;28;20074;-77
2022/09/23 05:40:31;;;;;;;27.73;18.23;;;;;;;;;;5070547;28;20349;-76
2022/09/23 05:42:57;;;;;;;24.70;18.30;;;;;;;;;;5083971;28;20151;-72
2022/09/23 05:45:23;;;;;;;24.63;19.35;;;;;;;;;;5079801;28;20097;-77
2022/09/23 05:47:50;;;;;;;24.63;18.92;;;;;;;;;;5073954;28;20041;-77
2022/09/23 05:50:16;;;;;;;26.13;17.70;;;;;;;;;;5079454;28;20114;-76
2022/09/23 05:52:42;;;;;;;25.88;18.15;;;;;;;;;;5066135;28;20390;-77
2022/09/23 05:55:08;;;;;;;28.20;19.17;;;;;;;;;;5081001;28;20117;-77
2022/09/23 05:57:34;;;;;;;27.15;18.85;;;;;;;;;;5080744;28;20102;-77
2022/09/23 06:00:00;;;;;;;27.23;18.25;;;;;;;;;;5066590;28;20346;-69
2022/09/23 06:02:27;;;;;;;28.52;19.67;;;;;;;;;;5072990;28;20481;-77
2022/09/23 06:04:53;;;;;;;22.63;18.55;;;;;;;;;;5056173;28;20062;-77
2022/09/23 06:07:19;;;;;;;22.88;18.45;;;;;;;;;;5079540;28;20115;-76
2022/09/23 06:09:45;;;;;;;24.65;18.92;;;;;;;;;;5111235;28;20474;-75
2022/09/23 06:12:12;;;;;;;23.70;18.95;;;;;;;;;;5090690;28;20448;-76
2022/09/23 06:14:38;;;;;;;26.45;20.10;;;;;;;;;;5070325;28;20043;-76
2022/09/23 06:17:05;;;;;;;25.83;19.30;;;;;;;;;;5075954;28;20072;-77
2022/09/23 06:19:31;;;;;;;28.95;19.33;;;;;;;;;;5088681;28;20119;-76
2022/09/23 06:21:57;;;;;;;25.10;19.27;;;;;;;;;;5064640;28;20040;-77
2022/09/23 06:24:23;;;;;;;;;;;;;;;;;;5071480;28;20120;-76
2022/09/23 06:26:49;;;;;;;24.90;20.08;;;;;;;;;;5080928;28;20383;-77
2022/09/23 06:29:17;;;;;;;24.45;19.65;;;;;;;;;;5069359;28;20051;-76
2022/09/23 06:31:43;;;;;;;23.52;18.85;;;;;;;;;;5075666;28;20103;-74
2022/09/23 06:34:09;;;;;;;25.85;20.48;;;;;;;;;;5074529;28;20111;-77
2022/09/23 06:36:35;;;;;;;24.73;19.65;;;;;;;;;;5060648;28;20052;-76
2022/09/23 06:39:01;;;;;;;26.50;19.55;;;;;;;;;;5086689;28;20227;-77
2022/09/23 06:41:27;;;;;;;24.45;18.23;;;;;;;;;;5079429;28;20423;-78
2022/09/23 06:43:53;;;;;;;28.70;18.80;;;;;;;;;;5064186;28;20372;-78
2022/09/23 06:46:19;;;;;;;30.58;19.52;;;;;;;;;;5061798;28;20131;-78
2022/09/23 06:48:47;;;;;;;25.55;18.60;;;;;;;;;;5086776;28;20044;-79
2022/09/23 06:51:18;;;;;;;26.60;18.77;;;;;;;;;;5071537;28;20119;-78
2022/09/23 06:53:47;;;;;;;24.90;18.73;;;;;;;;;;5053790;28;20043;-78
2022/09/23 06:56:14;;;;;;;25.52;19.95;;;;;;;;;;5066839;28;20089;-76
2022/09/23 06:58:40;;;;;;;27.27;18.63;;;;;;;;;;5080673;28;20074;-76
2022/09/23 07:01:10;;;;;;;23.70;18.70;;;;;;;;;;5083859;28;20143;-78
2022/09/23 07:03:38;;;;;;;25.55;18.73;;;;;;;;;;5054887;28;20376;-78
2022/09/23 07:06:05;;;;;;;25.23;18.50;;;;;;;;;;5082036;28;20109;-78
2022/09/23 07:08:32;;;;;;;24.88;18.98;;;;;;;;;;5069100;28;20403;-78
2022/09/23 07:10:59;;;;;;;26.05;19.65;;;;;;;;;;5050567;28;20048;-79
2022/09/23 07:13:26;;;;;;;22.83;18.92;;;;;;;;;;5087452;28;20047;-79
2022/09/23 07:15:57;;;;;;;24.30;18.45;;;;;;;;;;5053037;28;20118;-79
2022/09/23 07:18:24;;;;;;;24.58;18.60;;;;;;;;;;5066168;28;20433;-78
2022/09/23 07:20:50;;;;;;;23.88;18.33;;;;;;;;;;5076671;28;20060;-77
2022/09/23 07:23:16;;;;;;;21.52;17.58;;;;;;;;;;5084113;28;20044;-77
2022/09/23 07:25:43;;;;;;;24.65;18.58;;;;;;;;;;5092175;28;20048;-78
2022/09/23 07:28:09;;;;;;;;;;;;;;;;;;5070050;28;20124;-78
2022/09/23 07:30:39;;;;;;;25.17;18.90;;;;;;;;;;5061266;28;19920;-75
2022/09/23 07:33:05;;;;;;;27.25;18.80;;;;;;;;;;5101273;28;20130;-78
2022/09/23 07:35:33;;;;;;;23.88;18.42;;;;;;;;;;5061917;28;20047;-77
2022/09/23 07:37:59;;;;;;;24.20;19.00;;;;;;;;;;5075324;28;20064;-80
2022/09/23 07:40:25;;;;;;;;;;;;;;;;;;5066732;28;20119;-78
2022/09/23 07:42:51;;;;;;;22.80;18.83;;;;;;;;;;5081897;28;20023;-79
2022/09/23 07:45:18;;;;;;;24.23;19.58;;;;;;;;;;5060739;28;20128;-77
2022/09/23 07:47:44;;;;;;;27.13;18.77;;;;;;;;;;5083016;28;20062;-77
2022/09/23 07:50:10;;;;;;;;;;;;;;;;;;5056299;28;20037;-77
2022/09/23 07:52:37;;;;;;;25.13;19.52;;;;;;;;;;5074775;28;19930;-76
2022/09/23 07:55:06;;;;;;;23.40;18.17;;;;;;;;;;5074649;28;20078;-77
2022/09/23 07:57:33;;;;;;;26.90;20.15;;;;;;;;;;5085256;28;20067;-76
2022/09/23 07:59:59;;;;;;;23.73;19.00;;;;;;;;;;5079798;28;20226;-78
2022/09/23 08:02:26;;;;;;;26.88;19.25;;;;;;;;;;5064539;28;20093;-77
2022/09/23 08:04:53;;;;;;;26.45;18.65;;;;;;;;;;5077210;28;20217;-77
2022/09/23 08:07:19;;;;;;;25.05;18.45;;;;;;;;;;5079891;28;20132;-75
2022/09/23 08:09:46;;;;;;;23.20;18.40;;;;;;;;;;5080651;28;20047;-78
2022/09/23 08:12:14;;;;;;;24.85;18.80;;;;;;;;;;5068118;28;20075;-77
2022/09/23 08:14:44;;;;;;;24.25;18.15;;;;;;;;;;5061034;28;20052;-77
2022/09/23 08:17:10;;;;;;;;;;;;;;;;;;5070589;28;20404;-76
2022/09/23 08:19:36;;;;;;;25.05;18.17;;;;;;;;;;5088168;28;20031;-77
2022/09/23 08:22:02;;;;;;;23.88;17.75;;;;;;;;;;5085852;28;20047;-76
2022/09/23 08:24:31;;;;;;;26.52;18.45;;;;;;;;;;5071705;28;20326;-74
2022/09/23 08:26:57;;;;;;;24.83;18.63;;;;;;;;;;5055997;28;20075;-77
2022/09/23 08:29:24;;;;;;;24.52;18.23;;;;;;;;;;5057295;28;20072;-78
2022/09/23 08:31:51;;;;;;;23.10;17.52;;;;;;;;;;5075859;28;20040;-78
2022/09/23 08:34:19;;;;;;;23.25;17.55;;;;;;;;;;5067313;28;20125;-78
2022/09/23 08:36:45;;;;;;;23.70;18.48;;;;;;;;;;5079755;28;20547;-78
2022/09/23 08:39:11;;;;;;;;;;;;;;;;;;5082655;28;20131;-77
2022/09/23 08:41:37;;;;;;;28.45;18.55;;;;;;;;;;5072070;28;20328;-78
2022/09/23 08:44:25;;;;;;;26.90;18.08;;;;;;;;;;5068564;28;20052;-78
2022/09/23 08:47:06;;;;;;;23.77;17.73;;;;;;;;;;5067943;28;20049;-78
2022/09/23 08:49:38;;;;;;;24.73;17.65;;;;;;;;;;5079805;28;20067;-74
2022/09/23 08:52:13;;;;;;;22.17;16.90;;;;;;;;;;5069291;28;20106;-77
2022/09/23 08:54:40;;;;;;;24.63;17.85;;;;;;;;;;5066490;28;20060;-78
2022/09/23 08:57:07;;;;;;;22.40;17.83;;;;;;;;;;5072520;28;20064;-77
2022/09/23 08:59:36;;;;;;;24.30;17.80;;;;;;;;;;5079422;28;20489;-77
2022/09/23 09:02:11;;;;;;;23.45;17.42;;;;;;;;;;5068246;28;20176;-76
2022/09/23 09:04:43;;;;;;;22.98;16.83;;;;;;;;;;5052916;28;20412;-76
2022/09/23 09:07:09;;;;;;;22.30;15.57;;;;;;;;;;5068311;28;20049;-75
2022/09/23 09:09:44;;;;;;;23.85;16.25;;;;;;;;;;5069429;28;20124;-76
2022/09/23 09:12:13;;;;;;;22.17;16.45;;;;;;;;;;5084210;28;20040;-76
2022/09/23 09:14:42;;;;;;;24.10;16.52;;;;;;;;;;5087381;28;20177;-76
2022/09/23 09:17:19;;;;;;;21.25;16.33;;;;;;;;;;5087982;28;20400;-75
2022/09/23 09:19:54;;;;;;;22.65;16.65;;;;;;;;;;5079906;28;20477;-75
2022/09/23 09:22:23;;;;;;;;;;;;;;;;;;5067458;28;20502;-76
2022/09/23 09:24:50;;;;;;;21.80;16.10;;;;;;;;;;5067297;28;19960;-77
2022/09/23 09:27:16;;;;;;;23.73;16.15;;;;;;;;;;5067626;28;20049;-77
2022/09/23 09:29:45;;;;;;;20.67;15.38;;;;;;;;;;5067824;28;20132;-79
2022/09/23 09:32:19;;;;;;;22.60;15.27;;;;;;;;;;5066695;28;20040;-76
2022/09/23 09:34:57;;;;;;;23.27;15.60;;;;;;;;;;5068905;28;20938;-77
2022/09/23 09:37:31;;;;;;;19.90;14.75;;;;;;;;;;5071011;28;20052;-77
2022/09/23 09:39:57;;;;;;;21.23;15.38;;;;;;;;;;5070608;28;20394;-77
2022/09/23 09:42:39;;;;;;;20.65;15.13;;;;;;;;;;5086389;28;20154;-78
2022/09/23 09:45:12;;;;;;;24.67;15.45;;;;;;;;;;5092268;28;20080;-77
2022/09/23 09:47:47;;;;;;;20.27;15.20;;;;;;;;;;5091144;28;20052;-78
2022/09/23 09:50:20;;;;;;;20.35;14.45;;;;;;;;;;5091667;28;20070;-77
2022/09/23 09:52:55;;;;;;;20.42;14.05;;;;;;;;;;5069046;28;20084;-76
2022/09/23 09:55:27;;;;;;;21.20;15.10;;;;;;;;;;5071529;28;20407;-77
2022/09/23 09:58:03;;;;;;;22.65;14.50;;;;;;;;;;5091272;28;20066;-77
2022/09/23 10:00:29;;;;;;;24.35;15.30;;;;;;;;;;5089773;28;20051;-73
2022/09/23 10:03:01;;;;;;;22.42;15.18;;;;;;;;;;5088117;28;20495;-78
2022/09/23 10:05:30;;;;;;;21.90;14.70;;;;;;;;;;5071428;28;20086;-76
2022/09/23 10:08:04;;;;;;;23.33;14.73;;;;;;;;;;5090979;28;20052;-76
2022/09/23 10:10:30;;;;;;;24.27;14.98;;;;;;;;;;5091039;28;20083;-71
2022/09/23 10:12:56;;;;;;;20.80;15.88;;;;;;;;;;5085802;28;20122;-77
2022/09/23 10:15:25;;;;;;;23.48;15.25;;;;;;;;;;5071571;28;20356;-76
2022/09/23 10:17:52;;;;;;;22.63;15.25;;;;;;;;;;5072130;28;20113;-76
2022/09/23 10:20:18;;;;;;;;;;;;;;;;;;5087659;28;20052;-77
2022/09/23 10:22:47;;;;;;;21.95;15.88;;;;;;;;;;5087895;28;20373;-78
2022/09/23 10:25:23;;;;;;;26.08;14.93;;;;;;;;;;5070932;28;20066;-78
2022/09/23 10:27:49;;;;;;;19.50;15.00;;;;;;;;;;5076791;28;20124;-78
2022/09/23 10:30:25;;;;;;;20.42;14.93;;;;;;;;;;5069788;28;20040;-76
2022/09/23 10:32:53;;;;;;;22.70;14.80;;;;;;;;;;5069716;28;20080;-76
2022/09/23 10:35:23;;;;;;;22.17;14.27;;;;;;;;;;5071562;28;20341;-74
2022/09/23 10:37:52;;;;;;;21.85;14.75;;;;;;;;;;5071593;28;20064;-74
2022/09/23 10:49:20;;;;;;;21.08;14.65;;;;;;;;;;5070256;28;20437;-80
2022/09/23 10:51:54;;;;;;;21.42;14.73;;;;;;;;;;5069657;28;20052;-73
2022/09/23 10:54:41;;;;;;;23.88;15.20;;;;;;;;;;5069633;28;20398;-76
2022/09/23 11:00:22;;;;;;;23.90;15.07;;;;;;;;;;5069886;28;20404;-81
2022/09/23 11:03:08;;;;;;;19.58;14.40;;;;;;;;;;5071046;28;20464;-76
2022/09/23 11:05:46;;;;;;;22.15;15.32;;;;;;;;;;5070440;28;20060;-78
2022/09/23 11:08:21;;;;;;;24.30;15.02;;;;;;;;;;5069953;28;20165;-76
2022/09/23 11:11:03;;;;;;;27.67;15.30;;;;;;;;;;5034396;28;20108;-77
2022/09/23 11:13:44;;;;;;;22.55;15.68;;;;;;;;;;5066493;28;20073;-75
2022/09/23 11:16:30;;;;;;;21.17;15.25;;;;;;;;;;5069139;28;20087;-76
2022/09/23 11:19:05;;;;;;;24.50;14.85;;;;;;;;;;5068824;28;20527;-76
2022/09/23 11:21:43;;;;;;;21.73;14.90;;;;;;;;;;5054369;28;20055;-75
2022/09/23 11:24:13;;;;;;;22.70;14.65;;;;;;;;;;5071561;28;20048;-73
2022/09/23 11:26:58;;;;;;;20.20;14.95;;;;;;;;;;5068501;28;20056;-72
2022/09/23 11:29:41;;;;;;;26.65;16.10;;;;;;;;;;5069982;28;20327;-73
2022/09/23 11:32:26;;;;;;;22.45;15.50;;;;;;;;;;5071375;28;20167;-73
2022/09/23 11:35:02;;;;;;;21.67;14.60;;;;;;;;;;5067143;28;20075;-74
2022/09/23 11:37:34;;;;;;;22.40;15.93;;;;;;;;;;5052350;28;20063;-75
2022/09/23 11:40:07;;;;;;;23.75;16.02;;;;;;;;;;5049691;28;20822;-73
2022/09/23 11:42:35;;;;;;;21.83;16.00;;;;;;;;;;5068550;28;20040;-75
2022/09/23 11:45:06;;;;;;;26.90;16.50;;;;;;;;;;5068220;28;20679;-74
2022/09/23 11:47:36;;;;;;;23.67;14.73;;;;;;;;;;5074533;28;20063;-79
2022/09/23 11:50:15;;;;;;;22.23;15.90;;;;;;;;;;5087776;28;20127;-73
2022/09/23 11:52:50;;;;;;;24.08;15.90;;;;;;;;;;5089193;28;20122;-74
2022/09/23 11:55:16;;;;;;;25.25;15.80;;;;;;;;;;5088918;28;20479;-74
2022/09/23 11:57:53;;;;;;;23.58;15.95;;;;;;;;;;5051167;28;20039;-72
2022/09/23 12:00:23;;;;;;;24.55;15.95;;;;;;;;;;5089331;28;20059;-73
2022/09/23 12:02:49;;;;;;;22.92;16.20;;;;;;;;;;5088578;28;20165;-72
2022/09/23 12:05:19;;;;;;;23.35;17.40;;;;;;;;;;5089046;28;20092;-73
2022/09/23 12:08:02;;;;;;;24.90;17.00;;;;;;;;;;5080397;28;20109;-74
2022/09/23 12:10:48;;;;;;;24.50;16.80;;;;;;;;;;5068402;28;20048;-74
2022/09/23 12:13:18;;;;;;;22.33;15.07;;;;;;;;;;5068971;28;20083;-75
2022/09/23 12:16:13;;;;;;;27.55;16.33;;;;;;;;;;5068687;28;20056;-75
2022/09/23 12:18:45;;;;;;;22.35;15.93;;;;;;;;;;5047926;28;20049;-74
2022/09/23 12:21:23;;;;;;;26.58;17.45;;;;;;;;;;5050190;28;20138;-76
2022/09/23 12:23:49;;;;;;;22.77;16.23;;;;;;;;;;5067980;28;20498;-71
2022/09/23 12:26:17;;;;;;;26.27;16.42;;;;;;;;;;5068273;28;20064;-75
2022/09/23 12:28:45;;;;;;;21.40;16.30;;;;;;;;;;5068101;28;20040;-76
2022/09/23 12:31:16;;;;;;;22.52;15.70;;;;;;;;;;5068191;28;20072;-73
2022/09/23 12:33:52;;;;;;;23.95;16.42;;;;;;;;;;5068192;28;20044;-74
2022/09/23 12:36:34;;;;;;;23.38;17.00;;;;;;;;;;5068427;28;20124;-72
2022/09/23 12:39:03;;;;;;;24.80;16.80;;;;;;;;;;5068840;28;20044;-74
2022/09/23 12:41:35;;;;;;;24.58;16.55;;;;;;;;;;5069743;28;20052;-77
2022/09/23 12:44:35;;;;;;;24.50;16.27;;;;;;;;;;5053400;28;20051;-75
2022/09/23 12:47:14;;;;;;;28.20;16.63;;;;;;;;;;5007200;28;20060;-75
2022/09/23 12:49:40;;;;;;;24.33;15.10;;;;;;;;;;5070389;28;20095;-75
2022/09/23 12:52:15;;;;;;;22.83;15.45;;;;;;;;;;5068093;28;20399;-76
2022/09/23 12:54:46;;;;;;;24.23;15.30;;;;;;;;;;5080472;28;20120;-76
2022/09/23 12:57:46;;;;;;;25.33;16.73;;;;;;;;;;5069778;28;20052;-76
2022/09/23 13:00:25;;;;;;;24.08;16.73;;;;;;;;;;5019919;28;20076;-74
2022/09/23 13:08:32;;;;;;;23.52;16.67;;;;;;;;;;5088586;28;20048;-76
2022/09/23 13:11:03;;;;;;;25.00;16.52;;;;;;;;;;5070355;28;20048;-75
2022/09/23 13:13:32;;;;;;;24.95;16.85;;;;;;;;;;5091937;28;20322;-75
2022/09/23 13:16:12;;;;;;;25.70;17.58;;;;;;;;;;5086514;28;20059;-73
2022/09/23 13:18:55;;;;;;;26.05;16.80;;;;;;;;;;5092192;28;20044;-74
2022/09/23 13:21:40;;;;;;;25.33;17.00;;;;;;;;;;5088314;28;20040;-74
2022/09/23 13:24:12;;;;;;;24.40;17.05;;;;;;;;;;5079810;28;20083;-74
2022/09/23 13:26:49;;;;;;;26.10;17.50;;;;;;;;;;5071432;28;20067;-74
2022/09/23 13:29:18;;;;;;;27.85;17.75;;;;;;;;;;5070944;28;20036;-74
2022/09/23 13:31:45;;;;;;;24.55;16.50;;;;;;;;;;5071398;28;20074;-74
2022/09/23 13:34:11;;;;;;;;;;;;;;;;;;5073490;28;20131;-74
2022/09/23 13:36:44;;;;;;;27.50;18.58;;;;;;;;;;5070586;28;20000;-75
2022/09/23 13:39:29;;;;;;;26.48;18.77;;;;;;;;;;5070536;28;20102;-73
2022/09/23 13:42:01;;;;;;;26.20;19.38;;;;;;;;;;5070821;28;20421;-69
2022/09/23 13:44:28;;;;;;;29.65;18.73;;;;;;;;;;5085607;28;20460;-73
2022/09/23 13:46:59;;;;;;;27.80;18.80;;;;;;;;;;5091061;28;20048;-75
2022/09/23 13:49:29;;;;;;;27.98;19.23;;;;;;;;;;5072787;28;20364;-74
2022/09/23 13:51:56;;;;;;;25.73;19.30;;;;;;;;;;5090983;28;20185;-73
2022/09/23 13:54:28;;;;;;;26.95;19.23;;;;;;;;;;5081712;28;20079;-74
2022/09/23 13:56:57;;;;;;;28.13;20.55;;;;;;;;;;5090783;28;20048;-75
2022/09/23 13:59:24;;;;;;;30.27;21.45;;;;;;;;;;5090723;28;20187;-75
2022/09/23 14:01:50;;;;;;;30.40;21.52;;;;;;;;;;5091131;28;20108;-75
2022/09/23 14:04:16;;;;;;;;;;;;;;;;;;5084228;28;20045;-75
2022/09/23 14:06:42;;;;;;;29.92;23.63;;;;;;;;;;5088740;28;20364;-76
2022/09/23 14:09:08;;;;;;;32.95;23.90;;;;;;;;;;5071925;28;20436;-79
2022/09/23 14:11:35;;;;;;;32.22;23.80;;;;;;;;;;5090975;28;20433;-76
2022/09/23 14:14:05;;;;;;;28.77;23.20;;;;;;;;;;5082241;28;20215;-72
2022/09/23 14:16:33;;;;;;;35.53;24.42;;;;;;;;;;5070822;28;20059;-75
2022/09/23 14:19:00;;;;;;;29.58;23.60;;;;;;;;;;5052606;28;20446;-76
2022/09/23 14:21:37;;;;;;;31.20;24.13;;;;;;;;;;5052510;28;20048;-76
2022/09/23 14:24:12;;;;;;;29.80;23.85;;;;;;;;;;5069081;28;20136;-75
2022/09/23 14:26:39;;;;;;;30.92;24.23;;;;;;;;;;5089094;28;20148;-75
2022/09/23 14:29:08;;;;;;;33.60;24.10;;;;;;;;;;5089898;28;20153;-73
2022/09/23 14:31:34;;;;;;;34.20;25.48;;;;;;;;;;5087459;28;20044;-74
2022/09/23 14:34:00;;;;;;;34.75;25.25;;;;;;;;;;5074687;28;20040;-76
2022/09/23 14:39:11;;;;;;;34.90;25.55;;;;;;;;;;5090154;28;20044;-75
2022/09/23 14:41:40;;;;;;;35.85;24.08;;;;;;;;;;5090730;28;20047;-74
2022/09/23 14:44:07;;;;;;;34.10;25.88;;;;;;;;;;5069430;28;20052;-72
2022/09/23 14:46:34;;;;;;;33.08;25.55;;;;;;;;;;5084110;28;20044;-71
2022/09/23 14:49:09;;;;;;;31.65;26.83;;;;;;;;;;5076123;28;20063;-71
2022/09/23 14:51:47;;;;;;;36.58;25.35;;;;;;;;;;5075677;28;20154;-74
2022/09/23 14:54:24;;;;;;;33.90;25.80;;;;;;;;;;5083869;28;20055;-73
2022/09/23 14:56:50;;;;;;;33.22;26.00;;;;;;;;;;5070388;28;20124;-74
2022/09/23 14:59:16;;;;;;;;;;;;;;;;;;5068410;28;20461;-77
2022/09/23 15:01:42;;;;;;;30.65;24.55;;;;;;;;;;5082955;28;20087;-78